ADDS METAR Data INFO
IDs: Format: Raw Decoded Include TAF

Data at: 1827 UTC 24 Nov 2017

KBMQ 241753Z AUTO 20007KT 10SM CLR 22/03 A2998 RMK AO2 SLP144 T02170028 10222 20039 58012 $
KBMQ 241653Z AUTO 21007KT 10SM CLR 20/03 A3001 RMK AO2 SLP154 T02000028 $
KBMQ 241553Z AUTO 22007KT 10SM CLR 16/03 A3002 RMK AO2 SLP160 T01610033 $
KBMQ 241453Z AUTO 00000KT 10SM CLR 12/03 A3002 RMK AO2 SLP160 T01220033 50006 $
KBMQ 241353Z AUTO 00000KT 10SM CLR 07/01 A3003 RMK AO2 SLP166 T00670011 $
KBMQ 241253Z AUTO 00000KT 10SM CLR 04/00 A3002 RMK AO2 SLP163 T00440000 $
KBMQ 241153Z AUTO 00000KT 10SM CLR 05/M01 A3000 RMK AO2 SLP154 T00501006 10083 20050 56012 $
KBMQ 241053Z AUTO 00000KT 10SM CLR 06/M01 A3000 RMK AO2 SLP154 T00561006 $
KBMQ 240953Z AUTO 00000KT 10SM CLR 06/M01 A3002 RMK AO2 SLP158 T00611006 $
KBMQ 240853Z AUTO 00000KT 10SM CLR 07/00 A3003 RMK AO2 SLP163 T00670000 56015 $
KBMQ 240753Z AUTO 00000KT 10SM CLR 07/M01 A3005 RMK AO2 SLP167 T00721006 $
KBMQ 240653Z AUTO 00000KT 10SM CLR 08/00 A3006 RMK AO2 SLP173 T00830000 $
KBMQ 240553Z AUTO 00000KT 10SM CLR 08/M01 A3008 RMK AO2 SLP179 T00831006 10172 20083 402170006 58009 $
KBMQ 240453Z AUTO 00000KT 10SM CLR 10/00 A3009 RMK AO2 SLP184 T01000000 $
KBMQ 240353Z AUTO 00000KT 10SM CLR 09/00 A3010 RMK AO2 SLP190 T00940000 $
KBMQ 240253Z AUTO 00000KT 10SM CLR 10/00 A3011 RMK AO2 SLP193 T01000000 53009 $
KBMQ 240153Z AUTO 00000KT 10SM CLR 11/M01 A3009 RMK AO2 SLP188 T01061006 $
KBMQ 240053Z AUTO 00000KT 10SM CLR 13/M01 A3009 RMK AO2 SLP189 T01331006 $
KBMQ 232353Z AUTO 00000KT 10SM CLR 17/M01 A3008 RMK AO2 SLP183 T01721011 10217 20172 56004 $
KBMQ 232253Z AUTO 19003KT 10SM CLR 21/M02 A3008 RMK AO2 SLP181 T02061022 $
KBMQ 232153Z AUTO 28004KT 10SM CLR 21/M03 A3008 RMK AO2 SLP182 T02111028 $
KBMQ 232053Z AUTO 23003KT 10SM CLR 21/M03 A3009 RMK AO2 SLP185 T02061028 56032 $
KBMQ 231953Z AUTO VRB04KT 10SM CLR 20/M03 A3011 RMK AO2 SLP192 T02001033 $
KBMQ 231853Z AUTO 24006KT 10SM CLR 19/M04 A3015 RMK AO2 SLP205 T01891044 $
KBMQ 231753Z AUTO 25006KT 10SM CLR 17/M04 A3019 RMK AO2 SLP217 T01721039 10172 20006 58015 $
KBMQ 231653Z AUTO VRB04KT 10SM CLR 14/M04 A3023 RMK AO2 SLP233 T01441039
KBMQ 231553Z AUTO 29006KT 10SM CLR 12/M03 A3024 RMK AO2 SLP237 T01171033
KBMQ 231453Z AUTO 28003KT 10SM CLR 08/M02 A3023 RMK AO2 SLP237 T00831017 50007
KBMQ 231353Z AUTO 00000KT 10SM CLR 04/M01 A3023 RMK AO2 SLP239 T00441006
KBMQ 231253Z AUTO 00000KT 10SM CLR 01/M03 A3022 RMK AO2 SLP234 T00111028
KBMQ 231153Z AUTO 00000KT 10SM CLR 01/M04 A3021 RMK AO2 SLP230 T00111039 10067 20006 56010
KBMQ 231053Z AUTO 00000KT 10SM CLR 01/M04 A3022 RMK AO2 SLP232 T00111044
KBMQ 230953Z AUTO 00000KT 10SM CLR 01/M04 A3023 RMK AO2 SLP234 T00111044
KBMQ 230853Z AUTO 00000KT 10SM CLR 02/M04 A3024 RMK AO2 SLP239 T00171044 56010
KBMQ 230753Z AUTO 00000KT 10SM CLR 03/M04 A3025 RMK AO2 SLP241 T00281044
KBMQ 230653Z AUTO 02003KT 10SM CLR 03/M04 A3026 RMK AO2 SLP244 T00331044